Time;durP1;ratioP1;P1;durP2;ratioP2;P2;SDS_P1;SDS_P2;PMS_P1;PMS_P2;Temp;Humidity;BMP_temperature;BMP_pressure;BME280_temperature;BME280_humidity;BME280_pressure;Samples;Min_cycle;Max_cycle;Signal;HPM_P1;HPM_P2
2022/03/05 00:07:01;;;;;;;2.60;0.75;;;;;;;;;;20927086;28;20412;-60
2022/03/05 00:17:04;;;;;;;0.98;0.70;;;;;;;;;;20926474;28;20068;-56
2022/03/05 00:27:07;;;;;;;0.82;0.52;;;;;;;;;;20926687;28;20213;-57
2022/03/05 00:37:10;;;;;;;0.95;0.60;;;;;;;;;;20923376;28;20057;-58
2022/03/05 00:47:12;;;;;;;0.98;0.57;;;;;;;;;;20924848;28;20085;-56
2022/03/05 00:57:14;;;;;;;0.90;0.60;;;;;;;;;;20923201;28;20049;-58
2022/03/05 01:07:16;;;;;;;0.90;0.52;;;;;;;;;;20922292;28;20060;-59
2022/03/05 01:17:18;;;;;;;1.63;0.88;;;;;;;;;;20921891;28;20111;-57
2022/03/05 01:27:22;;;;;;;0.70;0.50;;;;;;;;;;20921075;28;20045;-57
2022/03/05 01:37:24;;;;;;;1.30;0.50;;;;;;;;;;20919473;28;20053;-59
2022/03/05 01:47:26;;;;;;;1.85;0.80;;;;;;;;;;20918936;28;20546;-56
2022/03/05 01:57:28;;;;;;;1.42;0.80;;;;;;;;;;20918218;28;20084;-57
2022/03/05 02:07:30;;;;;;;1.20;0.70;;;;;;;;;;20916334;28;20081;-57
2022/03/05 02:17:32;;;;;;;2.08;1.35;;;;;;;;;;20916843;28;20053;-58
2022/03/05 02:27:36;;;;;;;2.08;0.88;;;;;;;;;;20916453;28;20041;-56
2022/03/05 02:37:39;;;;;;;2.05;0.90;;;;;;;;;;20914619;28;20053;-56
2022/03/05 02:47:42;;;;;;;2.15;0.90;;;;;;;;;;20914125;28;20138;-57
2022/03/05 02:57:46;;;;;;;1.90;0.80;;;;;;;;;;20913042;28;20080;-58
2022/03/05 03:07:49;;;;;;;2.35;0.80;;;;;;;;;;20912607;28;20049;-57
2022/03/05 03:17:52;;;;;;;1.25;0.65;;;;;;;;;;20910900;28;20106;-56
2022/03/05 03:27:55;;;;;;;1.83;0.82;;;;;;;;;;20909929;28;20041;-56
2022/03/05 03:37:59;;;;;;;1.58;0.80;;;;;;;;;;20910955;28;20080;-57
2022/03/05 03:48:21;;;;;;;1.13;0.70;;;;;;;;;;20912074;28;20057;-55
2022/03/05 03:58:42;;;;;;;1.00;0.80;;;;;;;;;;20910635;28;20053;-59
2022/03/05 04:09:04;;;;;;;1.92;0.80;;;;;;;;;;20911169;28;20048;-55
2022/03/05 04:19:25;;;;;;;2.05;0.63;;;;;;;;;;20909178;28;20056;-58
2022/03/05 04:29:47;;;;;;;2.00;0.70;;;;;;;;;;20920898;28;20045;-55
2022/03/05 04:40:08;;;;;;;1.55;0.65;;;;;;;;;;20922733;28;20052;-57
2022/03/05 04:50:30;;;;;;;1.00;0.60;;;;;;;;;;20922596;28;20045;-56
2022/03/05 05:00:37;;;;;;;1.65;0.70;;;;;;;;;;20923009;28;20127;-57
2022/03/05 05:10:43;;;;;;;0.85;0.60;;;;;;;;;;20921584;28;20397;-56
2022/03/05 05:20:46;;;;;;;1.20;0.88;;;;;;;;;;20920384;28;20475;-55
2022/03/05 05:30:49;;;;;;;1.63;1.00;;;;;;;;;;20919188;28;20079;-58
2022/03/05 05:40:51;;;;;;;2.13;1.05;;;;;;;;;;20918841;28;20099;-58
2022/03/05 05:50:54;;;;;;;2.50;1.20;;;;;;;;;;20918730;28;20053;-57
2022/03/05 06:00:56;;;;;;;3.10;1.27;;;;;;;;;;20917604;28;20055;-56
2022/03/05 06:10:58;;;;;;;3.05;1.65;;;;;;;;;;20917267;28;20549;-57
2022/03/05 06:21:00;;;;;;;2.97;1.80;;;;;;;;;;20916253;28;20481;-57
2022/03/05 06:31:02;;;;;;;3.60;1.27;;;;;;;;;;20915216;28;20132;-56
2022/03/05 06:41:05;;;;;;;2.15;1.17;;;;;;;;;;20914367;28;20044;-55
2022/03/05 06:51:07;;;;;;;2.83;1.55;;;;;;;;;;20914523;28;20060;-55
2022/03/05 07:01:10;;;;;;;1.90;1.25;;;;;;;;;;20914230;28;20428;-55
2022/03/05 07:11:13;;;;;;;2.90;1.40;;;;;;;;;;20912285;28;20124;-54
2022/03/05 07:21:15;;;;;;;4.80;1.90;;;;;;;;;;20912338;28;20083;-55
2022/03/05 07:31:17;;;;;;;3.65;1.67;;;;;;;;;;20926856;28;20456;-55
2022/03/05 07:41:19;;;;;;;3.83;1.85;;;;;;;;;;20910291;28;20162;-54
2022/03/05 07:51:21;;;;;;;5.95;1.65;;;;;;;;;;20911223;28;20083;-53
2022/03/05 08:01:23;;;;;;;2.78;1.42;;;;;;;;;;20917379;28;20056;-54
2022/03/05 08:11:25;;;;;;;3.50;1.88;;;;;;;;;;20926098;28;20045;-56
2022/03/05 08:21:27;;;;;;;4.28;1.90;;;;;;;;;;20925416;28;20150;-55
2022/03/05 08:31:31;;;;;;;4.78;2.00;;;;;;;;;;20924660;28;20115;-57
2022/03/05 08:41:33;;;;;;;3.58;1.60;;;;;;;;;;20924697;28;20057;-55
2022/03/05 08:51:38;;;;;;;4.60;1.55;;;;;;;;;;20923243;28;20048;-55
2022/03/05 09:01:39;;;;;;;2.17;1.15;;;;;;;;;;20921673;28;20493;-54
2022/03/05 09:11:41;;;;;;;2.72;1.20;;;;;;;;;;20920816;28;20081;-54
2022/03/05 09:21:43;;;;;;;2.75;1.40;;;;;;;;;;20920275;28;20060;-55
2022/03/05 09:31:44;;;;;;;3.85;1.25;;;;;;;;;;20870123;28;20053;-54
2022/03/05 09:41:47;;;;;;;12.15;1.70;;;;;;;;;;20846572;28;20053;-51
2022/03/05 09:51:49;;;;;;;2.33;1.20;;;;;;;;;;20834268;28;20045;-56
2022/03/05 10:01:51;;;;;;;2.38;1.92;;;;;;;;;;20833703;28;20058;-56
2022/03/05 10:11:54;;;;;;;3.45;1.73;;;;;;;;;;20834282;28;20103;-56
2022/03/05 10:22:06;;;;;;;6.18;2.28;;;;;;;;;;20831883;28;20057;-56
2022/03/05 10:32:09;;;;;;;4.35;1.90;;;;;;;;;;20831203;28;20077;-54
2022/03/05 10:42:17;;;;;;;2.78;1.80;;;;;;;;;;20831363;28;20055;-56
2022/03/05 10:52:19;;;;;;;6.78;1.90;;;;;;;;;;20831263;28;20428;-57
2022/03/05 11:02:23;;;;;;;2.72;1.48;;;;;;;;;;20830910;28;20068;-56
2022/03/05 11:12:25;;;;;;;3.22;1.50;;;;;;;;;;20829396;28;20612;-56
2022/03/05 11:22:27;;;;;;;3.75;1.50;;;;;;;;;;20828491;28;20251;-53
2022/03/05 11:32:30;;;;;;;2.60;1.67;;;;;;;;;;20831453;28;20107;-56
2022/03/05 11:42:34;;;;;;;87.70;75.18;;;;;;;;;;20844981;28;20053;-55
2022/03/05 11:52:39;;;;;;;3.85;1.70;;;;;;;;;;20844839;28;20068;-56
2022/03/05 12:02:45;;;;;;;10.32;2.33;;;;;;;;;;20843045;28;20052;-56
2022/03/05 12:13:00;;;;;;;2.92;1.70;;;;;;;;;;20843996;28;20413;-56
2022/03/05 12:23:06;;;;;;;4.53;1.67;;;;;;;;;;20842200;28;20065;-54
2022/03/05 12:33:12;;;;;;;5.93;1.98;;;;;;;;;;20841598;28;20053;-54
2022/03/05 12:43:14;;;;;;;2.15;1.38;;;;;;;;;;20840512;28;20125;-56
2022/03/05 12:53:17;;;;;;;4.53;1.60;;;;;;;;;;20840682;28;20045;-55
2022/03/05 13:03:19;;;;;;;2.42;1.38;;;;;;;;;;20839104;28;20332;-57
2022/03/05 13:13:27;;;;;;;2.28;1.40;;;;;;;;;;20854803;28;20052;-55
2022/03/05 13:23:31;;;;;;;2.70;1.00;;;;;;;;;;20846506;28;20057;-54
2022/03/05 13:33:51;;;;;;;2.60;1.30;;;;;;;;;;20898491;28;20115;-56
2022/03/05 13:43:53;;;;;;;3.20;1.80;;;;;;;;;;20918772;28;20055;-54
2022/03/05 13:53:56;;;;;;;2.58;1.40;;;;;;;;;;20917951;28;20052;-53
2022/03/05 14:04:06;;;;;;;2.80;1.52;;;;;;;;;;20915907;28;20048;-54
2022/03/05 14:14:08;;;;;;;2.78;1.45;;;;;;;;;;20931977;28;20056;-59
2022/03/05 14:24:10;;;;;;;2.47;1.52;;;;;;;;;;20914808;28;20088;-57
2022/03/05 14:34:21;;;;;;;3.42;1.20;;;;;;;;;;20914381;28;20053;-57
2022/03/05 14:44:23;;;;;;;3.42;1.40;;;;;;;;;;20913411;28;20058;-58
2022/03/05 14:54:25;;;;;;;2.42;1.30;;;;;;;;;;20912759;28;20056;-56
2022/03/05 15:04:28;;;;;;;2.85;1.38;;;;;;;;;;20912529;28;20492;-55
2022/03/05 15:14:30;;;;;;;2.33;0.93;;;;;;;;;;20911636;28;20466;-54
2022/03/05 15:24:33;;;;;;;3.40;1.30;;;;;;;;;;20911388;28;20053;-56
2022/03/05 15:34:35;;;;;;;2.13;1.05;;;;;;;;;;20925676;28;20080;-57
2022/03/05 15:44:37;;;;;;;2.80;1.02;;;;;;;;;;20910516;28;20075;-56
2022/03/05 15:54:40;;;;;;;2.08;1.00;;;;;;;;;;20909570;28;20127;-56
2022/03/05 16:04:41;;;;;;;2.45;1.30;;;;;;;;;;20909303;28;20049;-57
2022/03/05 16:14:44;;;;;;;26.98;17.15;;;;;;;;;;20909249;28;20109;-57
2022/03/05 16:24:45;;;;;;;2.17;1.52;;;;;;;;;;20919230;28;20081;-55
2022/03/05 16:34:47;;;;;;;3.25;1.70;;;;;;;;;;20923828;28;20048;-56
2022/03/05 16:44:49;;;;;;;3.15;1.55;;;;;;;;;;20923136;28;20056;-52
2022/03/05 16:54:52;;;;;;;4.15;2.40;;;;;;;;;;20922256;28;20064;-53
2022/03/05 17:04:55;;;;;;;3.72;2.20;;;;;;;;;;20922625;28;20554;-56
2022/03/05 17:14:57;;;;;;;3.75;2.35;;;;;;;;;;20936552;28;20238;-53
2022/03/05 17:24:59;;;;;;;3.90;1.55;;;;;;;;;;20920758;28;20048;-54
2022/03/05 17:35:01;;;;;;;4.13;2.30;;;;;;;;;;20918554;28;20049;-53
2022/03/05 17:45:04;;;;;;;3.67;1.90;;;;;;;;;;20918765;28;20045;-54
2022/03/05 17:55:07;;;;;;;7.22;3.83;;;;;;;;;;20932603;28;20053;-56
2022/03/05 18:05:09;;;;;;;5.35;3.30;;;;;;;;;;20916330;28;20045;-54
2022/03/05 18:15:14;;;;;;;5.10;3.58;;;;;;;;;;20915786;28;20075;-56
2022/03/05 18:25:19;;;;;;;6.07;3.03;;;;;;;;;;20915354;28;20103;-56
2022/03/05 18:35:21;;;;;;;4.90;2.53;;;;;;;;;;20913880;28;20106;-52
2022/03/05 18:45:23;;;;;;;6.00;3.20;;;;;;;;;;20913400;28;20056;-53
2022/03/05 18:55:26;;;;;;;7.78;4.20;;;;;;;;;;20913023;28;20472;-53
2022/03/05 19:05:28;;;;;;;6.53;2.78;;;;;;;;;;20912668;28;20099;-53
2022/03/05 19:15:30;;;;;;;4.95;3.15;;;;;;;;;;20912165;28;20085;-52
2022/03/05 19:25:31;;;;;;;7.07;4.07;;;;;;;;;;20911888;28;20493;-52
2022/03/05 19:35:34;;;;;;;9.50;5.22;;;;;;;;;;20911636;28;20052;-52
2022/03/05 19:45:36;;;;;;;9.75;5.95;;;;;;;;;;20912301;28;20397;-54
2022/03/05 19:55:38;;;;;;;7.82;4.40;;;;;;;;;;20916978;28;20411;-51
2022/03/05 20:05:42;;;;;;;8.43;4.45;;;;;;;;;;20927083;28;20387;-52
2022/03/05 20:15:44;;;;;;;5.63;3.70;;;;;;;;;;20926571;28;20049;-52
2022/03/05 20:25:45;;;;;;;3.53;2.10;;;;;;;;;;20925574;28;20068;-56
2022/03/05 20:35:51;;;;;;;4.40;2.05;;;;;;;;;;20940427;28;20333;-56
2022/03/05 20:45:53;;;;;;;3.80;1.83;;;;;;;;;;20924334;28;20442;-54
2022/03/05 20:55:54;;;;;;;6.55;2.08;;;;;;;;;;20938003;28;20060;-55
2022/03/05 21:05:56;;;;;;;2.53;1.58;;;;;;;;;;20920611;28;20049;-56
2022/03/05 21:15:58;;;;;;;3.03;1.80;;;;;;;;;;20936302;28;20067;-52
2022/03/05 21:26:00;;;;;;;2.50;1.60;;;;;;;;;;20919926;28;20077;-55
2022/03/05 21:36:02;;;;;;;2.65;0.90;;;;;;;;;;20919018;28;20084;-53
2022/03/05 21:46:03;;;;;;;2.40;1.30;;;;;;;;;;20918823;28;20516;-52
2022/03/05 21:56:05;;;;;;;2.33;1.02;;;;;;;;;;20916576;28;20139;-56
2022/03/05 22:06:07;;;;;;;2.53;1.10;;;;;;;;;;20933223;28;20599;-52
2022/03/05 22:16:09;;;;;;;4.25;1.60;;;;;;;;;;20916025;28;20547;-52
2022/03/05 22:26:10;;;;;;;1.77;1.10;;;;;;;;;;20917637;28;20075;-53
2022/03/05 22:36:13;;;;;;;1.80;0.90;;;;;;;;;;20914942;28;20049;-54
2022/03/05 22:46:15;;;;;;;1.20;0.57;;;;;;;;;;20915095;28;20052;-57
2022/03/05 22:56:17;;;;;;;1.25;0.70;;;;;;;;;;20914057;28;20052;-55
2022/03/05 23:06:19;;;;;;;1.00;0.60;;;;;;;;;;20913257;28;20045;-52
2022/03/05 23:16:21;;;;;;;1.20;0.75;;;;;;;;;;20927877;28;20057;-56
2022/03/05 23:26:22;;;;;;;1.48;0.70;;;;;;;;;;20912532;28;20095;-54
2022/03/05 23:36:24;;;;;;;1.70;0.60;;;;;;;;;;20911321;28;20049;-56
2022/03/05 23:46:27;;;;;;;2.50;0.80;;;;;;;;;;20911625;28;20056;-55
2022/03/05 23:56:29;;;;;;;2.78;0.70;;;;;;;;;;20911522;28;20378;-54
